Hammonia Bavaria — A8QT7 — position and weather

sailwx.info

Track history (hours):
 
Tides and Currents Weather Stations Pressure Air Temp Water Temp Dewpoint Dewpoint Depression Visibility Wind Speed Wind Dir Waves Ship Positions

Hammonia Bavaria

Last reported at 2014-Jul-05 11:30 UTC. Time now 2014-Jul-22 13:28 UTC.
Position N 01°14' E 103°28'.
Warning: this ship's position is 17 days out of date.

Length 209 m; draft 10.7 m.

Type: Cargo ship. MMSI: 636091641.

Date/timePositionNaut miles runAvg speedWind from/ knotsBaromVisibWave heightAir tempDewpointWater temp
2014-Jul-05 11:30N 01°14' E 103°28'6 5.5
2014-Jul-05 10:28N 01°15' E 103°33'0 0.0
2014-Jul-05 09:31N 01°15' E 103°33'0 0.0
2014-Jul-05 08:28N 01°15' E 103°33'0 0.0
2014-Jul-05 06:28N 01°15' E 103°33'0 0.0
2014-Jul-05 05:28N 01°15' E 103°33'0 0.1
2014-Jul-05 04:28N 01°16' E 103°33'0 0.1
2014-Jul-05 02:28N 01°15' E 103°33'0 0.0
2014-Jul-05 01:25N 01°16' E 103°33'1 0.8
2014-Jul-05 00:33N 01°16' E 103°33'4 3.9
2014-Jul-04 23:32N 01°20' E 103°33'0 0.0
2014-Jul-04 22:23N 01°20' E 103°33'0 0.0
2014-Jul-04 21:23N 01°20' E 103°33'0 0.0
2014-Jul-04 20:26N 01°20' E 103°33'0 0.0
2014-Jul-04 13:32N 01°20' E 103°33'4 4.1
2014-Jul-04 12:33N 01°16' E 103°34'0 0.1
2014-Jul-04 11:30N 01°16' E 103°34'0 0.1
2014-Jul-04 10:18N 01°16' E 103°34'0 0.1
2014-Jul-04 09:09N 01°16' E 103°34'0 0.0
2014-Jul-04 08:27N 01°16' E 103°34'0 0.0
2014-Jul-04 07:21N 01°16' E 103°34'0 0.0
2014-Jul-04 06:30N 01°16' E 103°34'0 0.0
2014-Jul-04 05:24N 01°16' E 103°34'0 0.0
2014-Jul-04 04:09N 01°16' E 103°34'0 0.0
2014-Jul-04 02:30N 01°16' E 103°34'0 0.0
2014-Jul-04 01:30N 01°16' E 103°34'0 0.0
2014-Jul-04 00:15N 01°16' E 103°34'0 0.1
2014-Jul-03 23:27N 01°16' E 103°34'0 0.1
2014-Jul-03 22:33N 01°16' E 103°34'0 0.1
2014-Jul-03 21:30N 01°16' E 103°34'0 0.1
2014-Jul-03 20:33N 01°16' E 103°34'0 0.0
2014-Jul-03 14:15N 01°16' E 103°34'0 0.0
2014-Jul-03 13:12N 01°16' E 103°34'0 0.0
2014-Jul-03 12:33N 01°16' E 103°34'0 0.0
2014-Jul-03 11:33N 01°16' E 103°34'0 0.1
2014-Jul-03 10:27N 01°16' E 103°34'0 0.0
2014-Jul-03 06:27N 01°16' E 103°34'0 0.0
2014-Jul-03 05:30N 01°16' E 103°34'0 0.0
2014-Jul-03 04:30N 01°16' E 103°34'0 0.1
2014-Jul-03 03:27N 01°16' E 103°34'0 0.1
2014-Jul-03 02:24N 01°16' E 103°34'0 0.0
2014-Jul-03 01:33N 01°16' E 103°34'0 0.0
2014-Jul-03 00:30N 01°16' E 103°34'0 0.1
2014-Jul-02 23:27N 01°16' E 103°34'0 0.1
2014-Jul-02 22:33N 01°16' E 103°34'0 0.1
2014-Jul-02 21:33N 01°16' E 103°34'0 0.0
2014-Jul-02 20:33N 01°16' E 103°34'0 0.1
2014-Jul-02 19:24N 01°16' E 103°34'0 0.0
2014-Jul-02 18:09N 01°16' E 103°34'0 0.0
2014-Jul-02 15:18N 01°16' E 103°34'0 0.1
2014-Jul-02 14:30N 01°16' E 103°34'0 0.0
2014-Jul-02 13:33N 01°16' E 103°34'0 0.0
2014-Jul-02 12:27N 01°16' E 103°34'0 0.0
2014-Jul-02 11:33N 01°16' E 103°34'0 0.0
2014-Jul-02 10:24N 01°16' E 103°34'0 0.0
2014-Jul-02 09:33N 01°16' E 103°34'0 0.1
2014-Jul-02 07:18N 01°16' E 103°34'0 0.0
2014-Jul-02 05:15N 01°16' E 103°34'0 0.1
2014-Jul-02 02:24N 01°16' E 103°34'0 0.1
2014-Jul-02 01:33N 01°16' E 103°34'0 0.0
2014-Jul-02 00:33N 01°16' E 103°34'0 0.1
2014-Jul-01 23:24N 01°16' E 103°34'0 0.0
2014-Jul-01 22:21N 01°16' E 103°34'0 0.1
2014-Jul-01 21:30N 01°16' E 103°34'0 0.1
2014-Jul-01 20:33N 01°16' E 103°34'0 0.1
2014-Jul-01 19:33N 01°16' E 103°34'0 0.0
2014-Jul-01 18:33N 01°16' E 103°34'0 0.1
2014-Jul-01 17:27N 01°16' E 103°34'0 0.1
2014-Jul-01 14:18N 01°16' E 103°34'0 0.1
2014-Jul-01 13:21N 01°16' E 103°34'0 0.0
2014-Jul-01 12:09N 01°16' E 103°34'0 0.0
2014-Jul-01 11:24N 01°16' E 103°34'0 0.0
2014-Jul-01 10:33N 01°16' E 103°34'0 0.0
2014-Jul-01 09:30N 01°16' E 103°34'0 0.1
2014-Jul-01 07:27N 01°16' E 103°34'0 0.0
2014-Jul-01 06:15N 01°16' E 103°34'0 0.1
2014-Jul-01 05:33N 01°16' E 103°34'0 0.1
2014-Jul-01 04:30N 01°16' E 103°34'0 0.1
2014-Jul-01 02:27N 01°16' E 103°34'0 0.1
2014-Jul-01 01:33N 01°16' E 103°34'0 0.0
2014-Jul-01 00:12N 01°16' E 103°34'0 0.0
2014-Jun-30 23:33N 01°16' E 103°34'0 0.0
2014-Jun-30 22:33N 01°16' E 103°34'0 0.0
2014-Jun-30 21:33N 01°16' E 103°34'0 0.1
2014-Jun-30 20:30N 01°16' E 103°34'0 0.1
2014-Jun-30 19:33N 01°16' E 103°34'0 0.1
2014-Jun-30 18:33N 01°16' E 103°34'0 0.0
2014-Jun-30 17:33N 01°16' E 103°34'0 0.0
2014-Jun-30 16:12N 01°16' E 103°34'0 0.0
2014-Jun-30 15:33N 01°16' E 103°34'0 0.0
2014-Jun-30 13:18N 01°16' E 103°34'0 0.1
2014-Jun-30 12:33N 01°16' E 103°34'0 0.0
2014-Jun-30 11:33N 01°16' E 103°34'0 0.0
2014-Jun-30 10:27N 01°16' E 103°34'0 0.1
2014-Jun-30 07:12N 01°16' E 103°34'0 0.0
2014-Jun-30 06:33N 01°16' E 103°34'0 0.0
2014-Jun-30 05:27N 01°16' E 103°34'0 0.0
2014-Jun-30 04:30N 01°16' E 103°34'0 0.0
2014-Jun-30 03:24N 01°16' E 103°34'0 0.1
2014-Jun-30 02:26N 01°16' E 103°34'4 4.2
2014-Jun-30 01:33N 01°12' E 103°35'9 9.4
2014-Jun-30 00:33N 01°09' E 103°44'9 8.6
2014-Jun-29 23:33N 01°12' E 103°52'9 8.1
2014-Jun-29 22:23N 01°15' E 104°00'  
Track history (hours):
 
Tides and Currents Weather Stations Pressure Air Temp Water Temp Dewpoint Dewpoint Depression Visibility Wind Speed Wind Dir Waves Ship Positions

Hammonia Bavaria

Last reported at 2014-Jul-05 11:30 UTC. Time now 2014-Jul-22 13:28 UTC.
Position N 01°14' E 103°28'.
Warning: this ship's position is 17 days out of date.

Length 209 m; draft 10.7 m.

Type: Cargo ship. MMSI: 636091641.

Date/timePositionNaut miles runAvg speedWind from/ knotsBaromVisibWave heightAir tempDewpointWater temp
2014-Jul-05 11:30N 01°14' E 103°28'6 5.5
2014-Jul-05 10:28N 01°15' E 103°33'0 0.0
2014-Jul-05 09:31N 01°15' E 103°33'0 0.0
2014-Jul-05 08:28N 01°15' E 103°33'0 0.0
2014-Jul-05 06:28N 01°15' E 103°33'0 0.0
2014-Jul-05 05:28N 01°15' E 103°33'0 0.1
2014-Jul-05 04:28N 01°16' E 103°33'0 0.1
2014-Jul-05 02:28N 01°15' E 103°33'0 0.0
2014-Jul-05 01:25N 01°16' E 103°33'1 0.8
2014-Jul-05 00:33N 01°16' E 103°33'4 3.9
2014-Jul-04 23:32N 01°20' E 103°33'0 0.0
2014-Jul-04 22:23N 01°20' E 103°33'0 0.0
2014-Jul-04 21:23N 01°20' E 103°33'0 0.0
2014-Jul-04 20:26N 01°20' E 103°33'0 0.0
2014-Jul-04 13:32N 01°20' E 103°33'4 4.1
2014-Jul-04 12:33N 01°16' E 103°34'0 0.1
2014-Jul-04 11:30N 01°16' E 103°34'0 0.1
2014-Jul-04 10:18N 01°16' E 103°34'0 0.1
2014-Jul-04 09:09N 01°16' E 103°34'0 0.0
2014-Jul-04 08:27N 01°16' E 103°34'0 0.0
2014-Jul-04 07:21N 01°16' E 103°34'0 0.0
2014-Jul-04 06:30N 01°16' E 103°34'0 0.0
2014-Jul-04 05:24N 01°16' E 103°34'0 0.0
2014-Jul-04 04:09N 01°16' E 103°34'0 0.0
2014-Jul-04 02:30N 01°16' E 103°34'0 0.0
2014-Jul-04 01:30N 01°16' E 103°34'0 0.0
2014-Jul-04 00:15N 01°16' E 103°34'0 0.1
2014-Jul-03 23:27N 01°16' E 103°34'0 0.1
2014-Jul-03 22:33N 01°16' E 103°34'0 0.1
2014-Jul-03 21:30N 01°16' E 103°34'0 0.1
2014-Jul-03 20:33N 01°16' E 103°34'0 0.0
2014-Jul-03 14:15N 01°16' E 103°34'0 0.0
2014-Jul-03 13:12N 01°16' E 103°34'0 0.0
2014-Jul-03 12:33N 01°16' E 103°34'0 0.0
2014-Jul-03 11:33N 01°16' E 103°34'0 0.1
2014-Jul-03 10:27N 01°16' E 103°34'0 0.0
2014-Jul-03 06:27N 01°16' E 103°34'0 0.0
2014-Jul-03 05:30N 01°16' E 103°34'0 0.0
2014-Jul-03 04:30N 01°16' E 103°34'0 0.1
2014-Jul-03 03:27N 01°16' E 103°34'0 0.1
2014-Jul-03 02:24N 01°16' E 103°34'0 0.0
2014-Jul-03 01:33N 01°16' E 103°34'0 0.0
2014-Jul-03 00:30N 01°16' E 103°34'0 0.1
2014-Jul-02 23:27N 01°16' E 103°34'0 0.1
2014-Jul-02 22:33N 01°16' E 103°34'0 0.1
2014-Jul-02 21:33N 01°16' E 103°34'0 0.0
2014-Jul-02 20:33N 01°16' E 103°34'0 0.1
2014-Jul-02 19:24N 01°16' E 103°34'0 0.0
2014-Jul-02 18:09N 01°16' E 103°34'0 0.0
2014-Jul-02 15:18N 01°16' E 103°34'0 0.1
2014-Jul-02 14:30N 01°16' E 103°34'0 0.0
2014-Jul-02 13:33N 01°16' E 103°34'0 0.0
2014-Jul-02 12:27N 01°16' E 103°34'0 0.0
2014-Jul-02 11:33N 01°16' E 103°34'0 0.0
2014-Jul-02 10:24N 01°16' E 103°34'0 0.0
2014-Jul-02 09:33N 01°16' E 103°34'0 0.1
2014-Jul-02 07:18N 01°16' E 103°34'0 0.0
2014-Jul-02 05:15N 01°16' E 103°34'0 0.1
2014-Jul-02 02:24N 01°16' E 103°34'0 0.1
2014-Jul-02 01:33N 01°16' E 103°34'0 0.0
2014-Jul-02 00:33N 01°16' E 103°34'0 0.1
2014-Jul-01 23:24N 01°16' E 103°34'0 0.0
2014-Jul-01 22:21N 01°16' E 103°34'0 0.1
2014-Jul-01 21:30N 01°16' E 103°34'0 0.1
2014-Jul-01 20:33N 01°16' E 103°34'0 0.1
2014-Jul-01 19:33N 01°16' E 103°34'0 0.0
2014-Jul-01 18:33N 01°16' E 103°34'0 0.1
2014-Jul-01 17:27N 01°16' E 103°34'0 0.1
2014-Jul-01 14:18N 01°16' E 103°34'0 0.1
2014-Jul-01 13:21N 01°16' E 103°34'0 0.0
2014-Jul-01 12:09N 01°16' E 103°34'0 0.0
2014-Jul-01 11:24N 01°16' E 103°34'0 0.0
2014-Jul-01 10:33N 01°16' E 103°34'0 0.0
2014-Jul-01 09:30N 01°16' E 103°34'0 0.1
2014-Jul-01 07:27N 01°16' E 103°34'0 0.0
2014-Jul-01 06:15N 01°16' E 103°34'0 0.1
2014-Jul-01 05:33N 01°16' E 103°34'0 0.1
2014-Jul-01 04:30N 01°16' E 103°34'0 0.1
2014-Jul-01 02:27N 01°16' E 103°34'0 0.1
2014-Jul-01 01:33N 01°16' E 103°34'0 0.0
2014-Jul-01 00:12N 01°16' E 103°34'0 0.0
2014-Jun-30 23:33N 01°16' E 103°34'0 0.0
2014-Jun-30 22:33N 01°16' E 103°34'0 0.0
2014-Jun-30 21:33N 01°16' E 103°34'0 0.1
2014-Jun-30 20:30N 01°16' E 103°34'0 0.1
2014-Jun-30 19:33N 01°16' E 103°34'0 0.1
2014-Jun-30 18:33N 01°16' E 103°34'0 0.0
2014-Jun-30 17:33N 01°16' E 103°34'0 0.0
2014-Jun-30 16:12N 01°16' E 103°34'0 0.0
2014-Jun-30 15:33N 01°16' E 103°34'0 0.0
2014-Jun-30 13:18N 01°16' E 103°34'0 0.1
2014-Jun-30 12:33N 01°16' E 103°34'0 0.0
2014-Jun-30 11:33N 01°16' E 103°34'0 0.0
2014-Jun-30 10:27N 01°16' E 103°34'0 0.1
2014-Jun-30 07:12N 01°16' E 103°34'0 0.0
2014-Jun-30 06:33N 01°16' E 103°34'0 0.0
2014-Jun-30 05:27N 01°16' E 103°34'0 0.0
2014-Jun-30 04:30N 01°16' E 103°34'0 0.0
2014-Jun-30 03:24N 01°16' E 103°34'0 0.1
2014-Jun-30 02:26N 01°16' E 103°34'4 4.2
2014-Jun-30 01:33N 01°12' E 103°35'9 9.4
2014-Jun-30 00:33N 01°09' E 103°44'9 8.6
2014-Jun-29 23:33N 01°12' E 103°52'9 8.1
2014-Jun-29 22:23N 01°15' E 104°00'  

Dump ship's entire track history